sensor_id;sensor_type;location;lat;lon;timestamp;P1;durP1;ratioP1;P2;durP2;ratioP2
9773;SDS011;4926;42.670;23.316;2023-11-22T00:00:55;32.28;;;22.27;;
9773;SDS011;4926;42.670;23.316;2023-11-22T00:03:24;31.20;;;22.13;;
9773;SDS011;4926;42.670;23.316;2023-11-22T00:05:51;31.70;;;22.02;;
9773;SDS011;4926;42.670;23.316;2023-11-22T00:08:18;33.08;;;20.98;;
9773;SDS011;4926;42.670;23.316;2023-11-22T00:10:45;31.65;;;20.80;;
9773;SDS011;4926;42.670;23.316;2023-11-22T00:13:12;34.28;;;20.73;;
9773;SDS011;4926;42.670;23.316;2023-11-22T00:15:38;27.63;;;19.25;;
9773;SDS011;4926;42.670;23.316;2023-11-22T00:18:05;28.73;;;20.42;;
9773;SDS011;4926;42.670;23.316;2023-11-22T00:20:33;29.40;;;19.98;;
9773;SDS011;4926;42.670;23.316;2023-11-22T00:23:04;27.98;;;19.30;;
9773;SDS011;4926;42.670;23.316;2023-11-22T00:25:30;27.10;;;19.50;;
9773;SDS011;4926;42.670;23.316;2023-11-22T00:27:57;28.48;;;19.95;;
9773;SDS011;4926;42.670;23.316;2023-11-22T00:30:24;26.88;;;20.48;;
9773;SDS011;4926;42.670;23.316;2023-11-22T00:32:51;31.02;;;21.42;;
9773;SDS011;4926;42.670;23.316;2023-11-22T00:35:18;36.65;;;21.65;;
9773;SDS011;4926;42.670;23.316;2023-11-22T00:37:46;28.08;;;21.08;;
9773;SDS011;4926;42.670;23.316;2023-11-22T00:40:13;30.65;;;21.67;;
9773;SDS011;4926;42.670;23.316;2023-11-22T00:42:42;28.75;;;20.10;;
9773;SDS011;4926;42.670;23.316;2023-11-22T00:45:09;25.45;;;19.90;;
9773;SDS011;4926;42.670;23.316;2023-11-22T00:47:43;30.25;;;20.17;;
9773;SDS011;4926;42.670;23.316;2023-11-22T00:50:11;28.75;;;19.75;;
9773;SDS011;4926;42.670;23.316;2023-11-22T00:52:38;28.77;;;20.00;;
9773;SDS011;4926;42.670;23.316;2023-11-22T00:55:12;26.13;;;19.48;;
9773;SDS011;4926;42.670;23.316;2023-11-22T00:57:39;27.15;;;19.23;;
9773;SDS011;4926;42.670;23.316;2023-11-22T01:00:09;25.63;;;19.65;;
9773;SDS011;4926;42.670;23.316;2023-11-22T01:02:37;26.23;;;19.88;;
9773;SDS011;4926;42.670;23.316;2023-11-22T01:05:05;28.05;;;20.60;;
9773;SDS011;4926;42.670;23.316;2023-11-22T01:07:36;28.35;;;19.83;;
9773;SDS011;4926;42.670;23.316;2023-11-22T01:10:03;29.23;;;19.95;;
9773;SDS011;4926;42.670;23.316;2023-11-22T01:12:32;26.05;;;20.17;;
9773;SDS011;4926;42.670;23.316;2023-11-22T01:15:01;31.05;;;19.80;;
9773;SDS011;4926;42.670;23.316;2023-11-22T01:17:28;29.10;;;21.13;;
9773;SDS011;4926;42.670;23.316;2023-11-22T01:19:56;30.52;;;20.42;;
9773;SDS011;4926;42.670;23.316;2023-11-22T01:22:23;28.40;;;20.17;;
9773;SDS011;4926;42.670;23.316;2023-11-22T01:24:50;28.20;;;19.77;;
9773;SDS011;4926;42.670;23.316;2023-11-22T01:27:17;26.63;;;18.63;;
9773;SDS011;4926;42.670;23.316;2023-11-22T01:29:45;29.80;;;18.50;;
9773;SDS011;4926;42.670;23.316;2023-11-22T01:32:15;27.00;;;19.17;;
9773;SDS011;4926;42.670;23.316;2023-11-22T01:34:42;24.90;;;17.67;;
9773;SDS011;4926;42.670;23.316;2023-11-22T01:37:10;26.42;;;17.38;;
9773;SDS011;4926;42.670;23.316;2023-11-22T01:39:40;24.67;;;17.55;;
9773;SDS011;4926;42.670;23.316;2023-11-22T01:42:07;25.05;;;18.23;;
9773;SDS011;4926;42.670;23.316;2023-11-22T01:44:34;28.02;;;18.30;;
9773;SDS011;4926;42.670;23.316;2023-11-22T01:47:03;26.25;;;17.63;;
9773;SDS011;4926;42.670;23.316;2023-11-22T01:49:31;24.58;;;19.20;;
9773;SDS011;4926;42.670;23.316;2023-11-22T01:51:58;28.00;;;19.55;;
9773;SDS011;4926;42.670;23.316;2023-11-22T01:54:25;25.70;;;18.33;;
9773;SDS011;4926;42.670;23.316;2023-11-22T01:56:52;24.52;;;18.00;;
9773;SDS011;4926;42.670;23.316;2023-11-22T01:59:20;26.88;;;18.00;;
9773;SDS011;4926;42.670;23.316;2023-11-22T02:01:48;23.60;;;17.90;;
9773;SDS011;4926;42.670;23.316;2023-11-22T02:04:16;22.55;;;17.27;;
9773;SDS011;4926;42.670;23.316;2023-11-22T02:06:43;26.65;;;19.10;;
9773;SDS011;4926;42.670;23.316;2023-11-22T02:09:10;24.40;;;17.73;;
9773;SDS011;4926;42.670;23.316;2023-11-22T02:11:40;24.58;;;18.40;;
9773;SDS011;4926;42.670;23.316;2023-11-22T02:14:07;23.83;;;17.67;;
9773;SDS011;4926;42.670;23.316;2023-11-22T02:16:34;26.30;;;18.42;;
9773;SDS011;4926;42.670;23.316;2023-11-22T02:19:01;26.10;;;18.02;;
9773;SDS011;4926;42.670;23.316;2023-11-22T02:21:31;24.08;;;16.65;;
9773;SDS011;4926;42.670;23.316;2023-11-22T02:24:03;23.83;;;17.10;;
9773;SDS011;4926;42.670;23.316;2023-11-22T02:26:30;25.20;;;16.80;;
9773;SDS011;4926;42.670;23.316;2023-11-22T02:29:01;25.30;;;16.60;;
9773;SDS011;4926;42.670;23.316;2023-11-22T02:31:29;21.52;;;16.60;;
9773;SDS011;4926;42.670;23.316;2023-11-22T02:33:56;23.65;;;16.73;;
9773;SDS011;4926;42.670;23.316;2023-11-22T02:36:22;23.75;;;15.93;;
9773;SDS011;4926;42.670;23.316;2023-11-22T02:38:49;22.98;;;16.55;;
9773;SDS011;4926;42.670;23.316;2023-11-22T02:41:18;22.77;;;16.05;;
9773;SDS011;4926;42.670;23.316;2023-11-22T02:43:47;22.58;;;15.95;;
9773;SDS011;4926;42.670;23.316;2023-11-22T02:46:14;20.85;;;16.38;;
9773;SDS011;4926;42.670;23.316;2023-11-22T02:48:41;25.90;;;16.27;;
9773;SDS011;4926;42.670;23.316;2023-11-22T02:51:10;18.77;;;15.18;;
9773;SDS011;4926;42.670;23.316;2023-11-22T02:53:39;19.88;;;15.35;;
9773;SDS011;4926;42.670;23.316;2023-11-22T02:56:08;21.55;;;15.82;;
9773;SDS011;4926;42.670;23.316;2023-11-22T02:58:37;22.88;;;15.65;;
9773;SDS011;4926;42.670;23.316;2023-11-22T03:01:03;22.38;;;15.55;;
9773;SDS011;4926;42.670;23.316;2023-11-22T03:03:30;21.35;;;16.17;;
9773;SDS011;4926;42.670;23.316;2023-11-22T03:05:59;22.38;;;15.35;;
9773;SDS011;4926;42.670;23.316;2023-11-22T03:08:26;22.80;;;15.23;;
9773;SDS011;4926;42.670;23.316;2023-11-22T03:10:53;21.70;;;15.35;;
9773;SDS011;4926;42.670;23.316;2023-11-22T03:13:20;25.15;;;15.65;;
9773;SDS011;4926;42.670;23.316;2023-11-22T03:15:48;19.92;;;15.23;;
9773;SDS011;4926;42.670;23.316;2023-11-22T03:18:15;22.15;;;15.95;;
9773;SDS011;4926;42.670;23.316;2023-11-22T03:20:43;21.85;;;16.00;;
9773;SDS011;4926;42.670;23.316;2023-11-22T03:23:10;21.27;;;15.48;;
9773;SDS011;4926;42.670;23.316;2023-11-22T03:25:37;19.10;;;15.63;;
9773;SDS011;4926;42.670;23.316;2023-11-22T03:28:03;24.20;;;14.93;;
9773;SDS011;4926;42.670;23.316;2023-11-22T03:30:31;20.15;;;15.57;;
9773;SDS011;4926;42.670;23.316;2023-11-22T03:32:59;22.15;;;14.75;;
9773;SDS011;4926;42.670;23.316;2023-11-22T03:35:26;18.80;;;14.05;;
9773;SDS011;4926;42.670;23.316;2023-11-22T03:37:56;17.90;;;14.48;;
9773;SDS011;4926;42.670;23.316;2023-11-22T03:40:23;19.27;;;14.75;;
9773;SDS011;4926;42.670;23.316;2023-11-22T03:42:54;18.20;;;14.82;;
9773;SDS011;4926;42.670;23.316;2023-11-22T03:45:21;18.92;;;15.15;;
9773;SDS011;4926;42.670;23.316;2023-11-22T03:47:48;25.25;;;16.33;;
9773;SDS011;4926;42.670;23.316;2023-11-22T03:50:16;20.13;;;15.35;;
9773;SDS011;4926;42.670;23.316;2023-11-22T03:52:43;18.35;;;14.93;;
9773;SDS011;4926;42.670;23.316;2023-11-22T03:55:10;18.45;;;14.65;;
9773;SDS011;4926;42.670;23.316;2023-11-22T03:57:39;20.02;;;15.25;;
9773;SDS011;4926;42.670;23.316;2023-11-22T04:00:07;24.65;;;15.45;;
9773;SDS011;4926;42.670;23.316;2023-11-22T04:02:37;18.95;;;14.23;;
9773;SDS011;4926;42.670;23.316;2023-11-22T04:05:07;17.23;;;13.75;;
9773;SDS011;4926;42.670;23.316;2023-11-22T04:07:39;23.17;;;15.20;;
9773;SDS011;4926;42.670;23.316;2023-11-22T04:10:06;19.27;;;14.73;;
9773;SDS011;4926;42.670;23.316;2023-11-22T04:12:38;20.20;;;14.45;;
9773;SDS011;4926;42.670;23.316;2023-11-22T04:15:06;19.95;;;15.20;;
9773;SDS011;4926;42.670;23.316;2023-11-22T04:17:35;19.00;;;15.18;;
9773;SDS011;4926;42.670;23.316;2023-11-22T04:20:04;20.98;;;14.57;;
9773;SDS011;4926;42.670;23.316;2023-11-22T04:22:35;19.05;;;13.93;;
9773;SDS011;4926;42.670;23.316;2023-11-22T04:25:07;23.00;;;15.43;;
9773;SDS011;4926;42.670;23.316;2023-11-22T04:27:38;27.25;;;16.98;;
9773;SDS011;4926;42.670;23.316;2023-11-22T04:30:06;22.83;;;17.13;;
9773;SDS011;4926;42.670;23.316;2023-11-22T04:32:38;26.65;;;16.05;;
9773;SDS011;4926;42.670;23.316;2023-11-22T04:35:06;19.95;;;14.82;;
9773;SDS011;4926;42.670;23.316;2023-11-22T04:37:35;18.80;;;15.38;;
9773;SDS011;4926;42.670;23.316;2023-11-22T04:40:06;20.10;;;15.15;;
9773;SDS011;4926;42.670;23.316;2023-11-22T04:42:34;21.05;;;15.00;;
9773;SDS011;4926;42.670;23.316;2023-11-22T04:45:01;20.55;;;15.10;;
9773;SDS011;4926;42.670;23.316;2023-11-22T04:47:31;22.58;;;15.30;;
9773;SDS011;4926;42.670;23.316;2023-11-22T04:49:57;18.85;;;14.95;;
9773;SDS011;4926;42.670;23.316;2023-11-22T04:52:24;20.15;;;15.32;;
9773;SDS011;4926;42.670;23.316;2023-11-22T04:54:53;17.73;;;14.77;;
9773;SDS011;4926;42.670;23.316;2023-11-22T04:57:24;22.95;;;15.75;;
9773;SDS011;4926;42.670;23.316;2023-11-22T04:59:52;20.40;;;15.10;;
9773;SDS011;4926;42.670;23.316;2023-11-22T05:02:18;21.15;;;15.35;;
9773;SDS011;4926;42.670;23.316;2023-11-22T05:04:45;21.83;;;15.40;;
9773;SDS011;4926;42.670;23.316;2023-11-22T05:07:14;20.20;;;15.10;;
9773;SDS011;4926;42.670;23.316;2023-11-22T05:09:50;22.80;;;15.18;;
9773;SDS011;4926;42.670;23.316;2023-11-22T05:12:17;21.17;;;14.68;;
9773;SDS011;4926;42.670;23.316;2023-11-22T05:14:45;19.85;;;14.35;;
9773;SDS011;4926;42.670;23.316;2023-11-22T05:17:13;17.67;;;14.00;;
9773;SDS011;4926;42.670;23.316;2023-11-22T05:19:40;17.38;;;13.73;;
9773;SDS011;4926;42.670;23.316;2023-11-22T05:22:09;19.00;;;15.75;;
9773;SDS011;4926;42.670;23.316;2023-11-22T05:24:38;18.35;;;13.93;;
9773;SDS011;4926;42.670;23.316;2023-11-22T05:27:06;22.05;;;14.90;;
9773;SDS011;4926;42.670;23.316;2023-11-22T05:29:33;21.88;;;14.45;;
9773;SDS011;4926;42.670;23.316;2023-11-22T05:32:02;22.73;;;14.75;;
9773;SDS011;4926;42.670;23.316;2023-11-22T05:34:29;21.23;;;15.43;;
9773;SDS011;4926;42.670;23.316;2023-11-22T05:36:56;22.70;;;15.45;;
9773;SDS011;4926;42.670;23.316;2023-11-22T05:39:23;17.80;;;14.75;;
9773;SDS011;4926;42.670;23.316;2023-11-22T05:41:52;16.73;;;13.95;;
9773;SDS011;4926;42.670;23.316;2023-11-22T05:44:19;19.70;;;15.43;;
9773;SDS011;4926;42.670;23.316;2023-11-22T05:46:47;20.80;;;16.30;;
9773;SDS011;4926;42.670;23.316;2023-11-22T05:49:15;22.90;;;15.98;;
9773;SDS011;4926;42.670;23.316;2023-11-22T05:51:44;29.10;;;17.70;;
9773;SDS011;4926;42.670;23.316;2023-11-22T05:54:11;20.17;;;15.23;;
9773;SDS011;4926;42.670;23.316;2023-11-22T05:56:38;17.67;;;14.18;;
9773;SDS011;4926;42.670;23.316;2023-11-22T05:59:05;18.98;;;14.40;;
9773;SDS011;4926;42.670;23.316;2023-11-22T06:01:32;21.83;;;15.88;;
9773;SDS011;4926;42.670;23.316;2023-11-22T06:03:59;21.33;;;16.02;;
9773;SDS011;4926;42.670;23.316;2023-11-22T06:06:29;19.58;;;16.50;;
9773;SDS011;4926;42.670;23.316;2023-11-22T06:08:56;21.55;;;15.90;;
9773;SDS011;4926;42.670;23.316;2023-11-22T06:11:23;23.35;;;15.88;;
9773;SDS011;4926;42.670;23.316;2023-11-22T06:13:51;20.75;;;16.33;;
9773;SDS011;4926;42.670;23.316;2023-11-22T06:16:18;19.13;;;14.93;;
9773;SDS011;4926;42.670;23.316;2023-11-22T06:18:45;22.95;;;16.17;;
9773;SDS011;4926;42.670;23.316;2023-11-22T06:21:12;20.88;;;16.00;;
9773;SDS011;4926;42.670;23.316;2023-11-22T06:23:40;20.92;;;16.38;;
9773;SDS011;4926;42.670;23.316;2023-11-22T06:26:07;23.33;;;17.50;;
9773;SDS011;4926;42.670;23.316;2023-11-22T06:28:34;24.92;;;17.73;;
9773;SDS011;4926;42.670;23.316;2023-11-22T06:31:01;24.50;;;17.27;;
9773;SDS011;4926;42.670;23.316;2023-11-22T06:33:29;26.52;;;16.88;;
9773;SDS011;4926;42.670;23.316;2023-11-22T06:35:55;26.48;;;16.35;;
9773;SDS011;4926;42.670;23.316;2023-11-22T06:38:22;21.17;;;15.90;;
9773;SDS011;4926;42.670;23.316;2023-11-22T06:40:54;24.27;;;16.85;;
9773;SDS011;4926;42.670;23.316;2023-11-22T06:43:21;22.63;;;16.63;;
9773;SDS011;4926;42.670;23.316;2023-11-22T06:45:50;19.55;;;15.82;;
9773;SDS011;4926;42.670;23.316;2023-11-22T06:48:20;24.27;;;17.00;;
9773;SDS011;4926;42.670;23.316;2023-11-22T06:50:47;26.88;;;17.58;;
9773;SDS011;4926;42.670;23.316;2023-11-22T06:53:14;25.30;;;17.30;;
9773;SDS011;4926;42.670;23.316;2023-11-22T06:55:45;21.58;;;16.40;;
9773;SDS011;4926;42.670;23.316;2023-11-22T06:58:13;23.80;;;16.85;;
9773;SDS011;4926;42.670;23.316;2023-11-22T07:00:48;22.15;;;16.48;;
9773;SDS011;4926;42.670;23.316;2023-11-22T07:03:15;21.42;;;17.17;;
9773;SDS011;4926;42.670;23.316;2023-11-22T07:05:42;22.73;;;18.02;;
9773;SDS011;4926;42.670;23.316;2023-11-22T07:08:08;20.77;;;16.52;;
9773;SDS011;4926;42.670;23.316;2023-11-22T07:10:37;24.70;;;17.48;;
9773;SDS011;4926;42.670;23.316;2023-11-22T07:13:14;24.63;;;17.55;;
9773;SDS011;4926;42.670;23.316;2023-11-22T07:15:41;21.83;;;17.50;;
9773;SDS011;4926;42.670;23.316;2023-11-22T07:18:11;25.00;;;17.38;;
9773;SDS011;4926;42.670;23.316;2023-11-22T07:20:39;30.30;;;17.35;;
9773;SDS011;4926;42.670;23.316;2023-11-22T07:23:06;27.55;;;15.82;;
9773;SDS011;4926;42.670;23.316;2023-11-22T07:25:38;20.65;;;15.60;;
9773;SDS011;4926;42.670;23.316;2023-11-22T07:28:06;21.92;;;15.32;;
9773;SDS011;4926;42.670;23.316;2023-11-22T07:30:35;25.60;;;16.48;;
9773;SDS011;4926;42.670;23.316;2023-11-22T07:33:04;22.35;;;15.70;;
9773;SDS011;4926;42.670;23.316;2023-11-22T07:35:33;19.60;;;15.80;;
9773;SDS011;4926;42.670;23.316;2023-11-22T07:38:04;20.40;;;14.95;;
9773;SDS011;4926;42.670;23.316;2023-11-22T07:40:33;27.02;;;14.75;;
9773;SDS011;4926;42.670;23.316;2023-11-22T07:43:00;20.02;;;14.60;;
9773;SDS011;4926;42.670;23.316;2023-11-22T07:45:30;23.23;;;15.65;;
9773;SDS011;4926;42.670;23.316;2023-11-22T07:48:01;20.42;;;15.23;;
9773;SDS011;4926;42.670;23.316;2023-11-22T07:50:28;20.40;;;15.10;;
9773;SDS011;4926;42.670;23.316;2023-11-22T07:52:55;22.02;;;15.45;;
9773;SDS011;4926;42.670;23.316;2023-11-22T07:55:24;19.95;;;15.82;;
9773;SDS011;4926;42.670;23.316;2023-11-22T07:57:51;21.25;;;14.50;;
9773;SDS011;4926;42.670;23.316;2023-11-22T08:00:20;26.77;;;15.73;;
9773;SDS011;4926;42.670;23.316;2023-11-22T08:02:49;22.20;;;14.93;;
9773;SDS011;4926;42.670;23.316;2023-11-22T08:05:19;19.58;;;14.35;;
9773;SDS011;4926;42.670;23.316;2023-11-22T08:07:48;16.90;;;13.88;;
9773;SDS011;4926;42.670;23.316;2023-11-22T08:10:15;19.92;;;15.05;;
9773;SDS011;4926;42.670;23.316;2023-11-22T08:12:44;17.98;;;13.82;;
9773;SDS011;4926;42.670;23.316;2023-11-22T08:15:12;21.65;;;14.77;;
9773;SDS011;4926;42.670;23.316;2023-11-22T08:17:42;16.95;;;14.35;;
9773;SDS011;4926;42.670;23.316;2023-11-22T08:20:12;19.95;;;15.27;;
9773;SDS011;4926;42.670;23.316;2023-11-22T08:22:43;18.83;;;14.20;;
9773;SDS011;4926;42.670;23.316;2023-11-22T08:25:20;20.65;;;15.18;;
9773;SDS011;4926;42.670;23.316;2023-11-22T08:27:47;18.33;;;14.43;;
9773;SDS011;4926;42.670;23.316;2023-11-22T08:30:14;16.85;;;13.43;;
9773;SDS011;4926;42.670;23.316;2023-11-22T08:32:43;17.30;;;13.73;;
9773;SDS011;4926;42.670;23.316;2023-11-22T08:35:14;15.35;;;12.95;;
9773;SDS011;4926;42.670;23.316;2023-11-22T08:37:41;21.60;;;14.40;;
9773;SDS011;4926;42.670;23.316;2023-11-22T08:40:09;26.73;;;15.77;;
9773;SDS011;4926;42.670;23.316;2023-11-22T08:42:40;42.10;;;16.98;;
9773;SDS011;4926;42.670;23.316;2023-11-22T08:45:08;33.03;;;15.10;;
9773;SDS011;4926;42.670;23.316;2023-11-22T08:47:37;20.73;;;15.95;;
9773;SDS011;4926;42.670;23.316;2023-11-22T08:50:06;21.45;;;17.10;;
9773;SDS011;4926;42.670;23.316;2023-11-22T08:52:34;21.60;;;17.58;;
9773;SDS011;4926;42.670;23.316;2023-11-22T08:55:02;21.95;;;17.67;;
9773;SDS011;4926;42.670;23.316;2023-11-22T08:57:29;21.52;;;16.70;;
9773;SDS011;4926;42.670;23.316;2023-11-22T08:59:59;21.45;;;16.17;;
9773;SDS011;4926;42.670;23.316;2023-11-22T09:02:33;22.95;;;17.67;;
9773;SDS011;4926;42.670;23.316;2023-11-22T09:05:01;22.50;;;16.40;;
9773;SDS011;4926;42.670;23.316;2023-11-22T09:07:29;24.80;;;18.48;;
9773;SDS011;4926;42.670;23.316;2023-11-22T09:09:58;22.42;;;17.23;;
9773;SDS011;4926;42.670;23.316;2023-11-22T09:12:25;24.00;;;19.33;;
9773;SDS011;4926;42.670;23.316;2023-11-22T09:14:55;22.95;;;19.77;;
9773;SDS011;4926;42.670;23.316;2023-11-22T09:17:21;28.35;;;21.67;;
9773;SDS011;4926;42.670;23.316;2023-11-22T09:19:48;28.70;;;21.15;;
9773;SDS011;4926;42.670;23.316;2023-11-22T09:22:16;31.45;;;22.80;;
9773;SDS011;4926;42.670;23.316;2023-11-22T09:24:47;34.53;;;23.30;;
9773;SDS011;4926;42.670;23.316;2023-11-22T09:27:15;29.55;;;22.40;;
9773;SDS011;4926;42.670;23.316;2023-11-22T09:29:47;31.77;;;23.08;;
9773;SDS011;4926;42.670;23.316;2023-11-22T09:32:15;32.17;;;22.65;;
9773;SDS011;4926;42.670;23.316;2023-11-22T09:34:41;35.60;;;23.30;;
9773;SDS011;4926;42.670;23.316;2023-11-22T09:37:10;27.40;;;22.20;;
9773;SDS011;4926;42.670;23.316;2023-11-22T09:39:39;32.30;;;22.83;;
9773;SDS011;4926;42.670;23.316;2023-11-22T09:42:08;28.17;;;20.65;;
9773;SDS011;4926;42.670;23.316;2023-11-22T09:44:38;32.67;;;21.40;;
9773;SDS011;4926;42.670;23.316;2023-11-22T09:47:07;30.33;;;19.98;;
9773;SDS011;4926;42.670;23.316;2023-11-22T09:49:35;24.10;;;19.27;;
9773;SDS011;4926;42.670;23.316;2023-11-22T09:52:06;28.10;;;18.55;;
9773;SDS011;4926;42.670;23.316;2023-11-22T09:54:41;22.48;;;17.38;;
9773;SDS011;4926;42.670;23.316;2023-11-22T09:57:08;21.55;;;17.40;;
9773;SDS011;4926;42.670;23.316;2023-11-22T09:59:36;23.85;;;18.98;;
9773;SDS011;4926;42.670;23.316;2023-11-22T10:02:07;23.20;;;18.95;;
9773;SDS011;4926;42.670;23.316;2023-11-22T10:04:35;23.13;;;18.38;;
9773;SDS011;4926;42.670;23.316;2023-11-22T10:07:03;21.02;;;16.75;;
9773;SDS011;4926;42.670;23.316;2023-11-22T10:09:33;19.65;;;17.10;;
9773;SDS011;4926;42.670;23.316;2023-11-22T10:12:02;25.65;;;20.02;;
9773;SDS011;4926;42.670;23.316;2023-11-22T10:14:30;26.27;;;21.40;;
9773;SDS011;4926;42.670;23.316;2023-11-22T10:17:00;25.88;;;21.13;;
9773;SDS011;4926;42.670;23.316;2023-11-22T10:19:28;25.70;;;21.13;;
9773;SDS011;4926;42.670;23.316;2023-11-22T10:22:04;25.92;;;20.15;;
9773;SDS011;4926;42.670;23.316;2023-11-22T10:24:35;27.73;;;22.08;;
9773;SDS011;4926;42.670;23.316;2023-11-22T10:27:02;24.70;;;20.35;;
9773;SDS011;4926;42.670;23.316;2023-11-22T10:29:32;25.58;;;20.77;;
9773;SDS011;4926;42.670;23.316;2023-11-22T10:32:03;24.10;;;20.63;;
9773;SDS011;4926;42.670;23.316;2023-11-22T10:34:30;27.17;;;21.27;;
9773;SDS011;4926;42.670;23.316;2023-11-22T10:36:57;30.88;;;22.92;;
9773;SDS011;4926;42.670;23.316;2023-11-22T10:39:26;32.55;;;23.08;;
9773;SDS011;4926;42.670;23.316;2023-11-22T10:41:53;33.85;;;23.38;;
9773;SDS011;4926;42.670;23.316;2023-11-22T10:44:20;29.25;;;23.38;;
9773;SDS011;4926;42.670;23.316;2023-11-22T10:46:48;31.60;;;23.58;;
9773;SDS011;4926;42.670;23.316;2023-11-22T10:49:21;32.35;;;24.13;;
9773;SDS011;4926;42.670;23.316;2023-11-22T10:51:50;31.50;;;24.33;;
9773;SDS011;4926;42.670;23.316;2023-11-22T10:54:19;33.08;;;23.02;;
9773;SDS011;4926;42.670;23.316;2023-11-22T10:56:47;27.23;;;22.20;;
9773;SDS011;4926;42.670;23.316;2023-11-22T10:59:22;29.90;;;22.05;;
9773;SDS011;4926;42.670;23.316;2023-11-22T11:01:53;24.77;;;20.98;;
9773;SDS011;4926;42.670;23.316;2023-11-22T11:04:27;25.92;;;21.20;;
9773;SDS011;4926;42.670;23.316;2023-11-22T11:07:00;22.65;;;19.65;;
9773;SDS011;4926;42.670;23.316;2023-11-22T11:09:30;26.58;;;20.85;;
9773;SDS011;4926;42.670;23.316;2023-11-22T11:11:59;26.40;;;21.23;;
9773;SDS011;4926;42.670;23.316;2023-11-22T11:14:27;25.45;;;21.40;;
9773;SDS011;4926;42.670;23.316;2023-11-22T11:16:55;28.67;;;22.40;;
9773;SDS011;4926;42.670;23.316;2023-11-22T11:19:25;29.50;;;23.30;;
9773;SDS011;4926;42.670;23.316;2023-11-22T11:21:53;28.05;;;22.98;;
9773;SDS011;4926;42.670;23.316;2023-11-22T11:24:22;29.20;;;22.20;;
9773;SDS011;4926;42.670;23.316;2023-11-22T11:26:49;25.67;;;22.27;;
9773;SDS011;4926;42.670;23.316;2023-11-22T11:29:30;28.20;;;19.75;;
9773;SDS011;4926;42.670;23.316;2023-11-22T11:32:02;24.83;;;19.77;;
9773;SDS011;4926;42.670;23.316;2023-11-22T11:34:31;26.05;;;21.27;;
9773;SDS011;4926;42.670;23.316;2023-11-22T11:36:59;25.83;;;21.88;;
9773;SDS011;4926;42.670;23.316;2023-11-22T11:39:26;28.50;;;22.02;;
9773;SDS011;4926;42.670;23.316;2023-11-22T11:42:08;26.45;;;20.90;;
9773;SDS011;4926;42.670;23.316;2023-11-22T11:44:37;27.55;;;21.83;;
9773;SDS011;4926;42.670;23.316;2023-11-22T11:47:17;42.40;;;23.42;;
9773;SDS011;4926;42.670;23.316;2023-11-22T11:49:46;26.30;;;22.33;;
9773;SDS011;4926;42.670;23.316;2023-11-22T11:52:15;27.38;;;20.35;;
9773;SDS011;4926;42.670;23.316;2023-11-22T11:54:46;23.95;;;19.35;;
9773;SDS011;4926;42.670;23.316;2023-11-22T11:57:15;27.77;;;20.80;;
9773;SDS011;4926;42.670;23.316;2023-11-22T11:59:42;24.50;;;20.08;;
9773;SDS011;4926;42.670;23.316;2023-11-22T12:02:14;29.52;;;20.45;;
9773;SDS011;4926;42.670;23.316;2023-11-22T12:04:41;24.00;;;19.13;;
9773;SDS011;4926;42.670;23.316;2023-11-22T12:07:13;22.13;;;18.20;;
9773;SDS011;4926;42.670;23.316;2023-11-22T12:09:40;24.17;;;18.98;;
9773;SDS011;4926;42.670;23.316;2023-11-22T12:12:07;24.15;;;19.27;;
9773;SDS011;4926;42.670;23.316;2023-11-22T12:14:34;22.85;;;18.77;;
9773;SDS011;4926;42.670;23.316;2023-11-22T12:17:01;25.63;;;19.15;;
9773;SDS011;4926;42.670;23.316;2023-11-22T12:19:28;24.20;;;19.67;;
9773;SDS011;4926;42.670;23.316;2023-11-22T12:21:56;21.75;;;19.42;;
9773;SDS011;4926;42.670;23.316;2023-11-22T12:24:25;26.52;;;19.98;;
9773;SDS011;4926;42.670;23.316;2023-11-22T12:26:52;30.45;;;21.00;;
9773;SDS011;4926;42.670;23.316;2023-11-22T12:29:20;28.40;;;22.55;;
9773;SDS011;4926;42.670;23.316;2023-11-22T12:31:48;35.67;;;26.40;;
9773;SDS011;4926;42.670;23.316;2023-11-22T12:34:18;36.35;;;30.17;;
9773;SDS011;4926;42.670;23.316;2023-11-22T12:36:47;34.80;;;28.40;;
9773;SDS011;4926;42.670;23.316;2023-11-22T12:39:16;32.75;;;28.30;;
9773;SDS011;4926;42.670;23.316;2023-11-22T12:41:52;37.67;;;28.52;;
9773;SDS011;4926;42.670;23.316;2023-11-22T12:44:20;37.70;;;29.25;;
9773;SDS011;4926;42.670;23.316;2023-11-22T12:46:49;37.17;;;31.25;;
9773;SDS011;4926;42.670;23.316;2023-11-22T12:49:27;41.97;;;32.97;;
9773;SDS011;4926;42.670;23.316;2023-11-22T12:52:09;43.00;;;36.65;;
9773;SDS011;4926;42.670;23.316;2023-11-22T12:54:37;45.00;;;38.15;;
9773;SDS011;4926;42.670;23.316;2023-11-22T12:57:09;41.67;;;36.55;;
9773;SDS011;4926;42.670;23.316;2023-11-22T12:59:38;44.47;;;35.50;;
9773;SDS011;4926;42.670;23.316;2023-11-22T13:02:07;40.42;;;35.00;;
9773;SDS011;4926;42.670;23.316;2023-11-22T13:04:37;45.17;;;36.22;;
9773;SDS011;4926;42.670;23.316;2023-11-22T13:07:05;43.75;;;35.33;;
9773;SDS011;4926;42.670;23.316;2023-11-22T13:09:32;45.40;;;31.92;;
9773;SDS011;4926;42.670;23.316;2023-11-22T13:12:00;36.00;;;30.38;;
9773;SDS011;4926;42.670;23.316;2023-11-22T13:14:32;36.03;;;28.85;;
9773;SDS011;4926;42.670;23.316;2023-11-22T13:17:05;32.40;;;25.20;;
9773;SDS011;4926;42.670;23.316;2023-11-22T13:19:37;32.90;;;25.23;;
9773;SDS011;4926;42.670;23.316;2023-11-22T13:22:05;33.00;;;25.40;;
9773;SDS011;4926;42.670;23.316;2023-11-22T13:24:33;34.22;;;26.95;;
9773;SDS011;4926;42.670;23.316;2023-11-22T13:27:00;31.63;;;25.52;;
9773;SDS011;4926;42.670;23.316;2023-11-22T13:29:27;31.75;;;24.40;;
9773;SDS011;4926;42.670;23.316;2023-11-22T13:31:57;36.78;;;26.77;;
9773;SDS011;4926;42.670;23.316;2023-11-22T13:34:24;32.22;;;24.83;;
9773;SDS011;4926;42.670;23.316;2023-11-22T13:36:51;34.17;;;26.70;;
9773;SDS011;4926;42.670;23.316;2023-11-22T13:39:18;37.35;;;25.77;;
9773;SDS011;4926;42.670;23.316;2023-11-22T13:41:44;31.85;;;23.27;;
9773;SDS011;4926;42.670;23.316;2023-11-22T13:44:12;31.02;;;23.13;;
9773;SDS011;4926;42.670;23.316;2023-11-22T13:46:39;30.83;;;23.08;;
9773;SDS011;4926;42.670;23.316;2023-11-22T13:49:07;32.17;;;24.55;;
9773;SDS011;4926;42.670;23.316;2023-11-22T13:51:34;37.00;;;25.85;;
9773;SDS011;4926;42.670;23.316;2023-11-22T13:54:03;31.92;;;23.52;;
9773;SDS011;4926;42.670;23.316;2023-11-22T13:56:30;30.08;;;23.42;;
9773;SDS011;4926;42.670;23.316;2023-11-22T13:58:59;31.20;;;23.20;;
9773;SDS011;4926;42.670;23.316;2023-11-22T14:01:26;25.77;;;19.95;;
9773;SDS011;4926;42.670;23.316;2023-11-22T14:03:53;25.50;;;19.80;;
9773;SDS011;4926;42.670;23.316;2023-11-22T14:06:24;26.77;;;19.75;;
9773;SDS011;4926;42.670;23.316;2023-11-22T14:08:53;21.40;;;17.50;;
9773;SDS011;4926;42.670;23.316;2023-11-22T14:11:20;21.85;;;16.70;;
9773;SDS011;4926;42.670;23.316;2023-11-22T14:13:46;20.67;;;16.23;;
9773;SDS011;4926;42.670;23.316;2023-11-22T14:16:16;21.52;;;14.88;;
9773;SDS011;4926;42.670;23.316;2023-11-22T14:18:46;25.65;;;15.88;;
9773;SDS011;4926;42.670;23.316;2023-11-22T14:21:13;21.13;;;15.07;;
9773;SDS011;4926;42.670;23.316;2023-11-22T14:23:41;19.35;;;14.30;;
9773;SDS011;4926;42.670;23.316;2023-11-22T14:26:08;22.33;;;13.32;;
9773;SDS011;4926;42.670;23.316;2023-11-22T14:28:34;21.20;;;13.02;;
9773;SDS011;4926;42.670;23.316;2023-11-22T14:31:01;20.05;;;12.93;;
9773;SDS011;4926;42.670;23.316;2023-11-22T14:33:28;19.58;;;11.45;;
9773;SDS011;4926;42.670;23.316;2023-11-22T14:35:58;17.25;;;12.68;;
9773;SDS011;4926;42.670;23.316;2023-11-22T14:38:25;17.77;;;12.93;;
9773;SDS011;4926;42.670;23.316;2023-11-22T14:40:53;18.58;;;12.63;;